Time,TemperatureF,DewpointF,PressureIn,WindDirection,WindDirectionDegrees,WindSpeedMPH,WindSpeedGustMPH,Humidity,HourlyPrecipIn,Conditions,Clouds,dailyrainin,SolarRadiationWatts/m^2,SoftwareType,DateUTC
2013-01-11 00:12:00,14.8,11.0,31.53,WNW,302,3.0,6.0,86,0.00,,,0.00,0,weatherlink.com 1.10,2013-01-11 07:12:00,
2013-01-11 00:27:00,14.6,11.0,31.54,North,5,3.0,5.0,86,0.00,,,0.00,0,weatherlink.com 1.10,2013-01-11 07:27:00,
2013-01-11 00:42:00,14.2,11.0,31.55,NNE,18,1.0,3.0,86,0.00,,,0.00,0,weatherlink.com 1.10,2013-01-11 07:42:00,
2013-01-11 00:57:00,14.1,11.0,31.55,ENE,61,5.0,5.0,86,0.00,,,0.00,0,weatherlink.com 1.10,2013-01-11 07:57:00,
2013-01-11 01:12:00,-999.0,-99.9,31.56,North,-999,-999.0,-999.0,-999,0.00,,,0.00,,weatherlink.com 1.10,2013-01-11 08:12:00,
2013-01-11 01:27:00,-999.0,-99.9,31.55,North,-999,-999.0,-999.0,-999,0.00,,,0.00,,weatherlink.com 1.10,2013-01-11 08:27:00,
2013-01-11 01:42:00,-999.0,-99.9,31.55,North,-999,-999.0,-999.0,-999,0.00,,,0.00,,weatherlink.com 1.10,2013-01-11 08:42:00,
2013-01-11 01:57:00,-999.0,-99.9,31.55,North,-999,-999.0,-999.0,-999,0.00,,,0.00,,weatherlink.com 1.10,2013-01-11 08:57:00,
2013-01-11 02:12:00,-999.0,-99.9,31.55,North,-999,-999.0,-999.0,-999,0.00,,,0.00,,weatherlink.com 1.10,2013-01-11 09:12:00,
2013-01-11 02:27:00,-999.0,-99.9,31.55,North,-999,-999.0,-999.0,-999,0.00,,,0.00,,weatherlink.com 1.10,2013-01-11 09:27:00,
2013-01-11 02:43:00,-999.0,-99.9,31.56,North,-999,-999.0,-999.0,-999,0.00,,,0.00,,weatherlink.com 1.10,2013-01-11 09:43:00,
2013-01-11 02:58:00,-999.0,-99.9,31.57,North,-999,-999.0,-999.0,-999,0.00,,,0.00,,weatherlink.com 1.10,2013-01-11 09:58:00,
2013-01-11 03:13:00,-999.0,-99.9,31.57,North,-999,-999.0,-999.0,-999,0.00,,,0.00,,weatherlink.com 1.10,2013-01-11 10:13:00,
2013-01-11 03:28:00,-999.0,-99.9,31.57,North,-999,-999.0,-999.0,-999,0.00,,,0.00,,weatherlink.com 1.10,2013-01-11 10:28:00,
2013-01-11 03:43:00,-999.0,-99.9,31.57,North,-999,-999.0,-999.0,-999,0.00,,,0.00,,weatherlink.com 1.10,2013-01-11 10:43:00,
2013-01-11 03:58:00,12.2,-99.9,31.57,NE,53,0.0,0.0,-999,0.00,,,0.00,,weatherlink.com 1.10,2013-01-11 10:58:00,
2013-01-11 04:13:00,12.3,9.0,31.58,NE,34,1.0,6.0,86,0.00,,,0.00,0,weatherlink.com 1.10,2013-01-11 11:13:00,
2013-01-11 04:28:00,12.2,9.0,31.59,North,360,0.0,5.0,86,0.00,,,0.00,0,weatherlink.com 1.10,2013-01-11 11:28:00,
2013-01-11 04:43:00,11.9,9.0,31.60,North,9,1.0,4.0,87,0.00,,,0.00,0,weatherlink.com 1.10,2013-01-11 11:43:00,
2013-01-11 04:58:00,11.7,9.0,31.60,NNE,30,4.0,4.0,87,0.00,,,0.00,0,weatherlink.com 1.10,2013-01-11 11:58:00,
2013-01-11 05:13:00,11.7,9.0,31.61,NNE,32,1.0,7.0,87,0.00,,,0.00,0,weatherlink.com 1.10,2013-01-11 12:13:00,
2013-01-11 05:28:00,11.7,8.0,31.63,ENE,75,2.0,6.0,86,0.00,,,0.00,0,weatherlink.com 1.10,2013-01-11 12:28:00,
2013-01-11 05:43:00,-999.0,-99.9,31.63,North,-999,-999.0,-999.0,-999,0.00,,,0.00,,weatherlink.com 1.10,2013-01-11 12:43:00,
2013-01-11 05:58:00,-999.0,-99.9,31.64,North,-999,-999.0,-999.0,-999,0.00,,,0.00,,weatherlink.com 1.10,2013-01-11 12:58:00,
2013-01-11 06:13:00,-999.0,-99.9,31.64,North,-999,-999.0,-999.0,-999,0.00,,,0.00,,weatherlink.com 1.10,2013-01-11 13:13:00,
2013-01-11 06:28:00,-999.0,-99.9,31.64,North,-999,-999.0,-999.0,-999,0.00,,,0.00,,weatherlink.com 1.10,2013-01-11 13:28:00,
2013-01-11 06:43:00,-999.0,-99.9,31.64,North,-999,-999.0,-999.0,-999,0.00,,,0.00,,weatherlink.com 1.10,2013-01-11 13:43:00,
2013-01-11 06:59:00,-999.0,-99.9,31.65,North,-999,-999.0,-999.0,-999,0.00,,,0.00,,weatherlink.com 1.10,2013-01-11 13:59:00,
2013-01-11 07:14:00,-999.0,-99.9,31.66,North,-999,-999.0,-999.0,-999,0.00,,,0.00,,weatherlink.com 1.10,2013-01-11 14:14:00,
2013-01-11 07:29:00,-999.0,-99.9,31.67,North,-999,-999.0,-999.0,-999,0.00,,,0.00,,weatherlink.com 1.10,2013-01-11 14:29:00,
2013-01-11 07:44:00,-999.0,-99.9,31.67,North,-999,-999.0,-999.0,-999,0.00,,,0.00,,weatherlink.com 1.10,2013-01-11 14:44:00,
2013-01-11 07:59:00,-999.0,-99.9,31.68,North,-999,-999.0,-999.0,-999,0.00,,,0.00,,weatherlink.com 1.10,2013-01-11 14:59:00,
2013-01-11 08:14:00,-999.0,-99.9,31.69,North,-999,-999.0,-999.0,-999,0.00,,,0.00,,weatherlink.com 1.10,2013-01-11 15:14:00,
2013-01-11 08:29:00,-999.0,-99.9,31.70,North,-999,-999.0,-999.0,-999,0.00,,,0.00,,weatherlink.com 1.10,2013-01-11 15:29:00,
2013-01-11 08:44:00,-999.0,-99.9,31.70,North,-999,-999.0,-999.0,-999,0.00,,,0.00,,weatherlink.com 1.10,2013-01-11 15:44:00,
2013-01-11 08:59:00,-999.0,-99.9,31.71,North,-999,-999.0,-999.0,-999,0.00,,,0.00,,weatherlink.com 1.10,2013-01-11 15:59:00,
2013-01-11 09:14:00,-999.0,-99.9,31.72,North,-999,-999.0,-999.0,-999,0.00,,,0.00,,weatherlink.com 1.10,2013-01-11 16:14:00,
2013-01-11 09:29:00,-999.0,-99.9,31.73,North,-999,-999.0,-999.0,-999,0.00,,,0.00,,weatherlink.com 1.10,2013-01-11 16:29:00,
2013-01-11 09:44:00,-999.0,-99.9,31.74,North,-999,-999.0,-999.0,-999,0.00,,,0.00,,weatherlink.com 1.10,2013-01-11 16:44:00,
2013-01-11 09:59:00,-999.0,-99.9,31.75,North,-999,-999.0,-999.0,-999,0.00,,,0.00,,weatherlink.com 1.10,2013-01-11 16:59:00,
2013-01-11 10:14:00,-999.0,-99.9,31.76,North,-999,-999.0,-999.0,-999,0.00,,,0.00,,weatherlink.com 1.10,2013-01-11 17:14:00,
2013-01-11 10:30:00,-999.0,-99.9,31.77,North,-999,-999.0,-999.0,-999,0.00,,,0.00,,weatherlink.com 1.10,2013-01-11 17:30:00,
2013-01-11 10:45:00,-999.0,-99.9,31.77,North,-999,-999.0,-999.0,-999,0.00,,,0.00,,weatherlink.com 1.10,2013-01-11 17:45:00,
2013-01-11 11:00:00,-999.0,-99.9,31.78,North,-999,-999.0,-999.0,-999,0.00,,,0.00,,weatherlink.com 1.10,2013-01-11 18:00:00,
2013-01-11 11:15:00,-999.0,-99.9,31.79,North,-999,-999.0,-999.0,-999,0.00,,,0.00,,weatherlink.com 1.10,2013-01-11 18:15:00,
2013-01-11 11:30:00,-999.0,-99.9,31.79,North,-999,-999.0,-999.0,-999,0.00,,,0.00,,weatherlink.com 1.10,2013-01-11 18:30:00,
2013-01-11 11:45:00,-999.0,-99.9,31.79,North,-999,-999.0,-999.0,-999,0.00,,,0.00,,weatherlink.com 1.10,2013-01-11 18:45:00,
2013-01-11 12:00:00,-999.0,-99.9,31.79,North,-999,-999.0,-999.0,-999,0.00,,,0.00,,weatherlink.com 1.10,2013-01-11 19:00:00,
2013-01-11 12:15:00,-999.0,-99.9,31.79,North,-999,-999.0,-999.0,-999,0.00,,,0.00,,weatherlink.com 1.10,2013-01-11 19:15:00,
2013-01-11 12:30:00,-999.0,-99.9,31.80,North,-999,-999.0,-999.0,-999,0.00,,,0.00,,weatherlink.com 1.10,2013-01-11 19:30:00,
2013-01-11 12:45:00,-999.0,-99.9,31.80,North,-999,-999.0,-999.0,-999,0.00,,,0.00,,weatherlink.com 1.10,2013-01-11 19:45:00,
2013-01-11 13:00:00,-999.0,-99.9,31.80,North,-999,-999.0,-999.0,-999,0.00,,,0.00,,weatherlink.com 1.10,2013-01-11 20:00:00,
2013-01-11 13:15:00,14.5,11.0,31.81,NNE,29,9.0,12.0,85,0.00,,,0.00,341,weatherlink.com 1.10,2013-01-11 20:15:00,
2013-01-11 13:30:00,-999.0,-99.9,31.82,North,-999,-999.0,-999.0,-999,0.00,,,0.00,,weatherlink.com 1.10,2013-01-11 20:30:00,
2013-01-11 13:45:00,-999.0,-99.9,31.82,North,-999,-999.0,-999.0,-999,0.00,,,0.00,,weatherlink.com 1.10,2013-01-11 20:45:00,
2013-01-11 14:01:00,14.4,10.0,31.83,North,5,6.0,12.0,84,0.00,,,0.00,302,weatherlink.com 1.10,2013-01-11 21:01:00,
2013-01-11 14:16:00,-999.0,-99.9,31.85,North,-999,-999.0,-999.0,-999,0.00,,,0.00,,weatherlink.com 1.10,2013-01-11 21:16:00,
2013-01-11 14:31:00,-999.0,-99.9,31.85,North,-999,-999.0,-999.0,-999,0.00,,,0.00,,weatherlink.com 1.10,2013-01-11 21:31:00,
2013-01-11 14:46:00,-999.0,-99.9,31.86,North,-999,-999.0,-999.0,-999,0.00,,,0.00,,weatherlink.com 1.10,2013-01-11 21:46:00,
2013-01-11 15:01:00,14.1,10.0,31.87,NNE,31,3.0,12.0,84,0.00,,,0.00,137,weatherlink.com 1.10,2013-01-11 22:01:00,
2013-01-11 15:16:00,14.0,10.0,31.89,NNE,24,4.0,11.0,84,0.00,,,0.00,116,weatherlink.com 1.10,2013-01-11 22:16:00,
2013-01-11 15:31:00,14.1,10.0,31.90,NNE,24,6.0,10.0,84,0.00,,,0.00,107,weatherlink.com 1.10,2013-01-11 22:31:00,
2013-01-11 15:46:00,14.1,10.0,31.92,NNE,15,3.0,8.0,85,0.00,,,0.00,83,weatherlink.com 1.10,2013-01-11 22:46:00,
2013-01-11 16:01:00,14.0,10.0,31.93,NNE,20,2.0,7.0,85,0.00,,,0.00,60,weatherlink.com 1.10,2013-01-11 23:01:00,
2013-01-11 16:16:00,13.9,10.0,31.94,NE,48,2.0,7.0,85,0.00,,,0.00,42,weatherlink.com 1.10,2013-01-11 23:16:00,
2013-01-11 16:31:00,13.7,10.0,31.95,NNE,22,2.0,6.0,85,0.00,,,0.00,32,weatherlink.com 1.10,2013-01-11 23:31:00,
2013-01-11 16:46:00,13.7,10.0,31.96,NNE,26,1.0,6.0,86,0.00,,,0.00,16,weatherlink.com 1.10,2013-01-11 23:46:00,
2013-01-11 17:01:00,13.6,10.0,31.96,NE,38,2.0,4.0,86,0.00,,,0.00,7,weatherlink.com 1.10,2013-01-12 00:01:00,
2013-01-11 17:16:00,13.5,10.0,31.97,NE,42,0.0,5.0,85,0.00,,,0.00,0,weatherlink.com 1.10,2013-01-12 00:16:00,
2013-01-11 17:31:00,13.4,10.0,31.98,NNE,13,6.0,8.0,85,0.00,,,0.00,0,weatherlink.com 1.10,2013-01-12 00:31:00,
2013-01-11 17:46:00,13.3,10.0,31.98,NNE,12,4.0,8.0,85,0.00,,,0.00,0,weatherlink.com 1.10,2013-01-12 00:46:00,
2013-01-11 18:01:00,13.2,10.0,31.99,NNE,13,1.0,8.0,85,0.00,,,0.00,0,weatherlink.com 1.10,2013-01-12 01:01:00,
2013-01-11 18:16:00,13.1,10.0,32.00,NE,40,3.0,4.0,86,0.00,,,0.00,0,weatherlink.com 1.10,2013-01-12 01:16:00,
2013-01-11 18:31:00,12.9,10.0,32.00,NNE,24,2.0,5.0,86,0.00,,,0.00,0,weatherlink.com 1.10,2013-01-12 01:31:00,
2013-01-11 18:46:00,12.9,10.0,32.01,NNE,28,1.0,4.0,86,0.00,,,0.00,0,weatherlink.com 1.10,2013-01-12 01:46:00,
2013-01-11 19:01:00,12.6,9.0,32.01,NNE,18,1.0,5.0,86,0.00,,,0.00,0,weatherlink.com 1.10,2013-01-12 02:01:00,
2013-01-11 19:16:00,-999.0,-99.9,32.01,North,-999,-999.0,-999.0,-999,0.00,,,0.00,,weatherlink.com 1.10,2013-01-12 02:16:00,
2013-01-11 19:32:00,-999.0,-99.9,32.01,North,-999,-999.0,-999.0,-999,0.00,,,0.00,,weatherlink.com 1.10,2013-01-12 02:32:00,
2013-01-11 19:47:00,-999.0,-99.9,32.01,North,-999,-999.0,-999.0,-999,0.00,,,0.00,,weatherlink.com 1.10,2013-01-12 02:47:00,
2013-01-11 20:02:00,-999.0,-99.9,32.00,North,-999,-999.0,-999.0,-999,0.00,,,0.00,,weatherlink.com 1.10,2013-01-12 03:02:00,
2013-01-11 20:17:00,-999.0,-99.9,32.00,North,-999,-999.0,-999.0,-999,0.00,,,0.00,,weatherlink.com 1.10,2013-01-12 03:17:00,
2013-01-11 20:32:00,-999.0,-99.9,32.01,North,-999,-999.0,-999.0,-999,0.00,,,0.00,,weatherlink.com 1.10,2013-01-12 03:32:00,
2013-01-11 20:47:00,-999.0,-99.9,32.00,North,-999,-999.0,-999.0,-999,0.00,,,0.00,,weatherlink.com 1.10,2013-01-12 03:47:00,
2013-01-11 21:02:00,-999.0,-99.9,32.00,North,-999,-999.0,-999.0,-999,0.00,,,0.00,,weatherlink.com 1.10,2013-01-12 04:02:00,
2013-01-11 21:17:00,-999.0,-99.9,32.00,North,-999,-999.0,-999.0,-999,0.00,,,0.00,,weatherlink.com 1.10,2013-01-12 04:17:00,
2013-01-11 21:32:00,-999.0,-99.9,32.00,North,-999,-999.0,-999.0,-999,0.00,,,0.00,,weatherlink.com 1.10,2013-01-12 04:32:00,
2013-01-11 21:47:00,10.0,7.0,32.00,WNW,294,0.0,2.0,87,0.00,,,0.00,0,weatherlink.com 1.10,2013-01-12 04:47:00,
2013-01-11 22:17:00,9.8,7.0,32.03,NNE,16,2.0,4.0,87,0.00,,,0.00,0,weatherlink.com 1.10,2013-01-12 05:17:00,
2013-01-11 22:32:00,9.5,6.0,32.04,NNE,13,4.0,6.0,87,0.00,,,0.00,0,weatherlink.com 1.10,2013-01-12 05:32:00,
2013-01-11 22:47:00,9.3,6.0,32.05,NNE,13,1.0,4.0,87,0.00,,,0.00,0,weatherlink.com 1.10,2013-01-12 05:47:00,
2013-01-11 23:02:00,8.8,6.0,32.05,NNE,12,3.0,4.0,86,0.00,,,0.00,0,weatherlink.com 1.10,2013-01-12 06:02:00,
2013-01-11 23:17:00,8.0,5.0,32.07,North,11,0.0,2.0,87,0.00,,,0.00,0,weatherlink.com 1.10,2013-01-12 06:17:00,
2013-01-11 23:32:00,8.2,5.0,32.07,NNE,12,0.0,2.0,88,0.00,,,0.00,0,weatherlink.com 1.10,2013-01-12 06:32:00,
2013-01-11 23:48:00,8.5,5.0,32.07,NNE,12,0.0,3.0,87,0.00,,,0.00,0,weatherlink.com 1.10,2013-01-12 06:48:00,